Bookmark and Share
Track history (hours):
 

Holly Ann

More information available from US FCC via Universal Licensing System and Coast Guard Vessel Documentation Center.

Last reported at 2014-Apr-21 14:34 UTC. Time now 2014-Apr-21 15:11 UTC.
Position N 47°33' W 122°20'.

; draft 4.5 m.

Type: Towing. MMSI: 367413350.

NotesDate/timePositionNaut miles runAvg speedWind from/ knotsBaromVisibWave heightAir tempDewpointWater temp
2014-Apr-21 14:34N 47°33' W 122°20'0 0.0
2014-Apr-21 14:32N 47°33' W 122°20'0 0.1
2014-Apr-21 13:34N 47°33' W 122°20'0 0.4
2014-Apr-21 13:33N 47°33' W 122°20'4 3.6
2014-Apr-21 12:34N 47°36' W 122°23'0 6.3
2014-Apr-21 12:32N 47°36' W 122°23'7 7.1
2014-Apr-21 11:33N 47°31' W 122°29'0 4.8
2014-Apr-21 11:33N 47°30' W 122°29'8 7.9
2014-Apr-21 10:33N 47°23' W 122°32'9 8.6
2014-Apr-21 09:34N 47°14' W 122°34'10 6.9
2014-Apr-21 08:09N 47°10' W 122°47'4 6.3
2014-Apr-21 07:32N 47°10' W 122°53'  
2014-Apr-18 00:33N 47°13' W 122°36'1010.5
2014-Apr-17 23:34N 47°23' W 122°32'5 8.5
2014-Apr-17 22:58N 47°28' W 122°31'3 8.5
2014-Apr-17 22:34N 47°31' W 122°29'0 0.0
2014-Apr-17 22:33N 47°31' W 122°29'6 6.3
2014-Apr-17 21:33N 47°34' W 122°21'0 0.0
2014-Apr-17 21:33N 47°34' W 122°21'1 1.2
2014-Apr-17 20:34N 47°33' W 122°21'0 0.0
2014-Apr-17 20:33N 47°33' W 122°21'0 0.0
2014-Apr-17 19:33N 47°33' W 122°21'0 0.0
2014-Apr-17 19:33N 47°33' W 122°21'0 0.0
2014-Apr-17 18:34N 47°33' W 122°21'0 0.0
2014-Apr-17 18:33N 47°33' W 122°21'0 0.0
2014-Apr-17 17:34N 47°33' W 122°21'0 0.0
2014-Apr-17 17:30N 47°33' W 122°21'0 0.0
2014-Apr-17 16:34N 47°33' W 122°21'0 0.0
2014-Apr-17 16:30N 47°33' W 122°21'0 0.0
2014-Apr-17 15:34N 47°33' W 122°21'0 0.0
2014-Apr-17 15:30N 47°33' W 122°21'0 0.0
2014-Apr-17 14:34N 47°33' W 122°21'0 0.0
2014-Apr-17 14:29N 47°33' W 122°21'0 0.0
2014-Apr-17 13:34N 47°33' W 122°21'0 0.0
2014-Apr-17 13:29N 47°33' W 122°21'0 0.0
2014-Apr-17 12:34N 47°33' W 122°21'0 0.0
2014-Apr-17 12:29N 47°33' W 122°21'0 0.0
2014-Apr-17 11:34N 47°33' W 122°21'0 0.0
2014-Apr-17 11:29N 47°33' W 122°21'0 0.0
2014-Apr-17 10:34N 47°33' W 122°21'0 0.0
2014-Apr-17 10:29N 47°33' W 122°21'0 0.0
2014-Apr-17 09:34N 47°33' W 122°21'0 0.0
2014-Apr-17 09:30N 47°33' W 122°21'2 1.6
2014-Apr-17 08:34N 47°35' W 122°22'0 4.5
2014-Apr-17 08:29N 47°35' W 122°22'5 5.5
2014-Apr-17 07:34N 47°32' W 122°28'1 8.9
2014-Apr-17 07:29N 47°31' W 122°28'8 8.5
2014-Apr-17 06:33N 47°24' W 122°32'10 9.4
2014-Apr-17 05:32N 47°14' W 122°34'9 7.8
2014-Apr-17 04:20N 47°10' W 122°46'6 7.0
2014-Apr-17 03:32N 47°10' W 122°54'2 0.1
2014-Apr-16 13:10N 47°11' W 122°56'2 2.9
2014-Apr-16 12:33N 47°11' W 122°53'0 0.0
2014-Apr-16 11:28N 47°11' W 122°53'0 0.0
2014-Apr-16 10:30N 47°11' W 122°53'0 0.0
2014-Apr-16 09:29N 47°11' W 122°53'3 3.0
2014-Apr-16 08:25N 47°11' W 122°49'7 7.4
2014-Apr-16 07:31N 47°11' W 122°39'7 7.5
2014-Apr-16 06:33N 47°17' W 122°33'6 7.1
2014-Apr-16 05:42N 47°23' W 122°32'1 8.0
2014-Apr-16 05:33N 47°24' W 122°32'8 7.9
2014-Apr-16 04:33N 47°32' W 122°28'0 7.1
2014-Apr-16 04:32N 47°32' W 122°28'8 8.5
2014-Apr-16 03:33N 47°40' W 122°28'0 6.8
2014-Apr-16 03:32N 47°41' W 122°28'8 7.8
2014-Apr-16 02:33N 47°48' W 122°25'0 5.7
2014-Apr-16 02:32N 47°48' W 122°25'8 8.4
2014-Apr-16 01:33N 47°55' W 122°20'7 7.3
2014-Apr-16 00:33N 48°01' W 122°13'2 2.1
2014-Apr-15 23:29N 47°59' W 122°15'0 0.0
2014-Apr-15 22:33N 47°59' W 122°15'0 0.0
2014-Apr-15 21:29N 47°59' W 122°15'0 0.0
2014-Apr-15 20:33N 47°59' W 122°15'0 0.0
2014-Apr-15 19:33N 47°59' W 122°15'0 0.0
2014-Apr-15 18:33N 47°59' W 122°15'0 0.0
2014-Apr-15 17:33N 47°59' W 122°15'0 0.0
2014-Apr-15 16:29N 47°59' W 122°15'0 0.0
2014-Apr-15 15:31N 47°59' W 122°15'0 0.0
2014-Apr-15 14:33N 47°59' W 122°15'0 0.0
2014-Apr-15 12:34N 47°59' W 122°15'3 2.9
2014-Apr-15 11:34N 48°01' W 122°11'2 1.8
2014-Apr-15 10:34N 48°00' W 122°13'1012.0
2014-Apr-15 09:46N 47°52' W 122°22'420.0
2014-Apr-15 09:34N 47°56' W 122°20'723.0
2014-Apr-15 09:16N 47°50' W 122°23'2 2.2
2014-Apr-15 08:34N 47°51' W 122°23'6160.0
2014-Apr-15 08:32N 47°46' W 122°25'0 0.2
2014-Apr-15 07:34N 47°46' W 122°25'6154.0
2014-Apr-15 07:31N 47°40' W 122°27'0 0.3
2014-Apr-15 06:34N 47°40' W 122°27'7175.2
2014-Apr-15 06:31N 47°33' W 122°28'6 7.7
2014-Apr-15 05:46N 47°27' W 122°31'628.7
2014-Apr-15 05:34N 47°33' W 122°28'16 8.0
2014-Apr-15 03:34N 47°17' W 122°33'  
2014-Apr-12 11:23N 47°10' W 122°54'1 0.9
2014-Apr-12 10:14N 47°11' W 122°53'0 0.0
2014-Apr-12 09:29N 47°11' W 122°53'0 0.0
2014-Apr-12 08:12N 47°11' W 122°53'0 0.0
2014-Apr-12 07:19N 47°11' W 122°53'0 0.0
2014-Apr-12 06:32N 47°11' W 122°53'0 0.0
2014-Apr-12 05:33N 47°11' W 122°53'0 0.0
2014-Apr-12 04:32N 47°11' W 122°53'0 0.0
2014-Apr-12 03:32N 47°11' W 122°53'0 0.0
2014-Apr-12 02:33N 47°11' W 122°53'3 3.0
2014-Apr-12 01:30N 47°11' W 122°49'7 7.2
2014-Apr-12 00:33N 47°12' W 122°39'8 7.5
2014-Apr-11 23:33N 47°18' W 122°33'9 8.8
2014-Apr-11 22:34N 47°27' W 122°31'2 9.3
2014-Apr-11 22:18N 47°29' W 122°30'7 9.3
2014-Apr-11 21:34N 47°35' W 122°25'024.4
2014-Apr-11 21:33N 47°35' W 122°25'4 3.9
2014-Apr-11 20:33N 47°33' W 122°20'0 0.0
2014-Apr-11 20:33N 47°33' W 122°20'0 0.0
2014-Apr-11 19:33N 47°33' W 122°20'0 0.0
2014-Apr-11 19:33N 47°33' W 122°20'0 0.0
2014-Apr-11 18:34N 47°33' W 122°20'0 0.0
2014-Apr-11 18:32N 47°33' W 122°20'0 0.0
2014-Apr-11 17:34N 47°33' W 122°20'0 0.0
2014-Apr-11 17:33N 47°33' W 122°20'0 0.0
2014-Apr-11 16:33N 47°33' W 122°20'0 0.0
2014-Apr-11 16:33N 47°33' W 122°20'0 0.0
2014-Apr-11 15:33N 47°33' W 122°20'0 0.0
2014-Apr-11 15:33N 47°33' W 122°20'  

Dump ship's entire track history

sailing weather and tide predictions

Holly Ann — WDE9094 — position and weather